createdAt,value
2022-12-18T00:01:43.365Z,-2.10
2022-12-18T00:04:24.495Z,-2.10
2022-12-18T00:06:57.876Z,-2.20
2022-12-18T00:09:31.095Z,-2.20
2022-12-18T00:14:48.335Z,-2.20
2022-12-18T00:17:21.163Z,-2.30
2022-12-18T00:19:53.700Z,-2.30
2022-12-18T00:22:26.537Z,-2.40
2022-12-18T00:24:59.060Z,-2.40
2022-12-18T00:27:31.918Z,-2.50
2022-12-18T00:30:04.883Z,-2.60
2022-12-18T00:32:38.179Z,-2.70
2022-12-18T00:35:10.732Z,-2.80
2022-12-18T00:37:43.560Z,-2.80
2022-12-18T00:40:16.082Z,-2.90
2022-12-18T00:42:58.249Z,-2.90
2022-12-18T00:45:32.549Z,-3.00
2022-12-18T00:48:05.665Z,-3.10
2022-12-18T00:50:38.270Z,-3.00
2022-12-18T00:53:11.213Z,-3.00
2022-12-18T00:55:44.452Z,-3.10
2022-12-18T00:58:18.137Z,-3.00
2022-12-18T01:00:50.731Z,-3.00
2022-12-18T01:03:23.607Z,-3.10
2022-12-18T01:05:56.124Z,-3.00
2022-12-18T01:08:29.033Z,-3.00
2022-12-18T01:11:02.098Z,-2.90
2022-12-18T01:13:35.127Z,-2.90
2022-12-18T01:16:08.485Z,-2.90
2022-12-18T01:18:41.404Z,-2.90
2022-12-18T01:21:17.074Z,-2.90
2022-12-18T01:23:54.316Z,-2.90
2022-12-18T01:26:30.452Z,-2.90
2022-12-18T01:29:03.461Z,-2.90
2022-12-18T01:31:36.060Z,-3.00
2022-12-18T01:34:09.868Z,-3.00
2022-12-18T01:36:42.371Z,-3.00
2022-12-18T01:39:15.999Z,-3.00
2022-12-18T01:42:04.239Z,-3.00
2022-12-18T01:44:59.045Z,-2.90
2022-12-18T01:48:12.897Z,-3.00
2022-12-18T01:50:46.225Z,-3.00
2022-12-18T01:53:22.893Z,-3.10
2022-12-18T01:55:59.632Z,-3.00
2022-12-18T01:58:40.566Z,-3.20
2022-12-18T02:01:13.922Z,-3.10
2022-12-18T02:03:46.811Z,-3.10
2022-12-18T02:06:39.978Z,-3.10
2022-12-18T02:09:24.603Z,-3.10
2022-12-18T02:12:11.795Z,-3.10
2022-12-18T02:15:18.668Z,-3.20
2022-12-18T02:17:58.602Z,-3.20
2022-12-18T02:20:38.254Z,-3.20
2022-12-18T02:23:52.899Z,-3.20
2022-12-18T02:26:35.320Z,-3.20
2022-12-18T02:29:22.730Z,-3.30
2022-12-18T02:31:59.536Z,-3.30
2022-12-18T02:34:37.786Z,-3.30
2022-12-18T02:37:14.953Z,-3.20
2022-12-18T02:39:50.273Z,-3.20
2022-12-18T02:42:23.373Z,-3.10
2022-12-18T02:44:56.254Z,-3.10
2022-12-18T02:47:33.645Z,-3.00
2022-12-18T02:50:19.934Z,-3.00
2022-12-18T02:53:00.900Z,-3.00
2022-12-18T02:56:10.788Z,-2.90
2022-12-18T02:58:46.196Z,-2.90
2022-12-18T03:01:51.136Z,-2.90
2022-12-18T03:04:40.453Z,-2.80
2022-12-18T03:07:24.453Z,-2.80
2022-12-18T03:09:58.892Z,-2.80
2022-12-18T03:12:36.675Z,-2.80
2022-12-18T03:15:21.976Z,-2.80
2022-12-18T03:18:04.248Z,-2.80
2022-12-18T03:20:39.928Z,-2.80
2022-12-18T03:23:18.739Z,-2.70
2022-12-18T03:25:55.426Z,-2.80
2022-12-18T03:28:32.746Z,-2.80
2022-12-18T03:31:08.587Z,-2.80
2022-12-18T03:33:58.503Z,-2.80
2022-12-18T03:36:31.016Z,-2.80
2022-12-18T03:39:04.246Z,-2.80
2022-12-18T03:41:47.101Z,-2.70
2022-12-18T03:44:27.377Z,-2.70
2022-12-18T03:46:59.856Z,-2.70
2022-12-18T03:49:41.648Z,-2.70
2022-12-18T03:52:27.452Z,-2.70
2022-12-18T03:55:02.483Z,-2.70
2022-12-18T03:57:35.848Z,-2.60
2022-12-18T04:00:18.951Z,-2.60
2022-12-18T04:02:57.087Z,-2.60
2022-12-18T04:05:31.119Z,-2.60
2022-12-18T04:08:04.131Z,-2.60
2022-12-18T04:10:37.795Z,-2.50
2022-12-18T04:13:10.722Z,-2.50
2022-12-18T04:15:43.624Z,-2.50
2022-12-18T04:18:16.158Z,-2.50
2022-12-18T04:20:48.949Z,-2.50
2022-12-18T04:23:21.441Z,-2.40
2022-12-18T04:25:54.325Z,-2.40
2022-12-18T04:28:26.902Z,-2.50
2022-12-18T04:30:59.868Z,-2.50
2022-12-18T04:33:32.734Z,-2.50
2022-12-18T04:36:05.993Z,-2.50
2022-12-18T04:38:38.521Z,-2.50
2022-12-18T04:41:11.337Z,-2.50
2022-12-18T04:43:43.877Z,-2.50
2022-12-18T04:46:16.744Z,-2.40
2022-12-18T04:48:49.479Z,-2.50
2022-12-18T04:51:26.452Z,-2.40
2022-12-18T04:53:59.442Z,-2.40
2022-12-18T04:56:33.078Z,-2.40
2022-12-18T04:59:05.914Z,-2.40
2022-12-18T05:01:38.835Z,-2.40
2022-12-18T05:04:11.448Z,-2.50
2022-12-18T05:06:44.347Z,-2.60
2022-12-18T05:09:17.011Z,-2.60
2022-12-18T05:11:50.129Z,-2.60
2022-12-18T05:14:22.629Z,-2.60
2022-12-18T05:17:00.543Z,-2.60
2022-12-18T05:19:33.528Z,-2.60
2022-12-18T05:22:06.324Z,-2.70
2022-12-18T05:24:38.814Z,-2.70
2022-12-18T05:27:11.621Z,-2.70
2022-12-18T05:29:44.148Z,-2.80
2022-12-18T05:32:16.928Z,-2.80
2022-12-18T05:34:49.403Z,-2.90
2022-12-18T05:37:22.464Z,-2.90
2022-12-18T05:39:54.972Z,-3.00
2022-12-18T05:42:27.775Z,-3.00
2022-12-18T05:45:00.311Z,-3.00
2022-12-18T05:47:33.163Z,-3.20
2022-12-18T05:50:06.366Z,-3.30
2022-12-18T05:52:39.131Z,-3.30
2022-12-18T05:55:11.655Z,-3.40
2022-12-18T05:57:44.423Z,-3.50
2022-12-18T06:00:17.436Z,-3.60
2022-12-18T06:02:50.425Z,-3.70
2022-12-18T06:05:23.092Z,-3.80
2022-12-18T06:07:55.873Z,-4.00
2022-12-18T06:10:28.527Z,-4.10
2022-12-18T06:13:01.855Z,-4.00
2022-12-18T06:15:37.026Z,-4.10
2022-12-18T06:18:10.096Z,-4.00
2022-12-18T06:20:42.653Z,-4.00
2022-12-18T06:23:15.410Z,-4.20
2022-12-18T06:25:47.895Z,-4.30
2022-12-18T06:28:21.219Z,-4.50
2022-12-18T06:30:54.082Z,-4.60
2022-12-18T06:33:29.117Z,-4.80
2022-12-18T06:36:09.411Z,-4.90
2022-12-18T06:38:44.756Z,-4.80
2022-12-18T06:41:20.576Z,-5.00
2022-12-18T06:43:58.125Z,-5.10
2022-12-18T06:46:33.236Z,-5.20
2022-12-18T06:49:06.280Z,-5.30
2022-12-18T06:51:39.162Z,-5.30
2022-12-18T06:54:11.954Z,-5.30
2022-12-18T06:56:46.892Z,-5.40
2022-12-18T06:59:19.958Z,-5.40
2022-12-18T07:01:52.668Z,-5.30
2022-12-18T07:04:31.638Z,-5.30
2022-12-18T07:07:04.156Z,-5.20
2022-12-18T07:09:37.287Z,-5.20
2022-12-18T07:12:10.839Z,-5.10
2022-12-18T07:14:43.715Z,-5.00
2022-12-18T07:17:16.262Z,-4.90
2022-12-18T07:19:49.023Z,-4.80
2022-12-18T07:22:21.556Z,-4.70
2022-12-18T07:24:54.455Z,-4.60
2022-12-18T07:27:27.043Z,-4.40
2022-12-18T07:29:59.827Z,-4.30
2022-12-18T07:32:32.363Z,-4.20
2022-12-18T07:35:05.518Z,-4.00
2022-12-18T07:37:38.083Z,-3.90
2022-12-18T07:40:11.675Z,-3.70
2022-12-18T07:42:44.217Z,-3.60
2022-12-18T07:45:17.148Z,-3.40
2022-12-18T07:47:49.634Z,-3.30
2022-12-18T07:50:23.024Z,-3.20
2022-12-18T07:52:55.571Z,-3.10
2022-12-18T07:55:28.503Z,-3.00
2022-12-18T07:58:03.687Z,-2.90
2022-12-18T08:00:36.822Z,-2.90
2022-12-18T08:03:09.340Z,-2.80
2022-12-18T08:05:42.243Z,-2.80
2022-12-18T08:08:14.807Z,-2.80
2022-12-18T08:10:56.910Z,-2.80
2022-12-18T08:13:29.587Z,-2.80
2022-12-18T08:16:07.448Z,-2.70
2022-12-18T08:18:39.926Z,-2.70
2022-12-18T08:21:19.390Z,-2.70
2022-12-18T08:23:55.832Z,-2.80
2022-12-18T08:26:31.085Z,-2.80
2022-12-18T08:29:03.762Z,-2.90
2022-12-18T08:31:36.964Z,-2.90
2022-12-18T08:34:10.025Z,-2.90
2022-12-18T08:36:42.838Z,-3.00
2022-12-18T08:39:15.321Z,-2.90
2022-12-18T08:42:10.285Z,-2.80
2022-12-18T08:44:43.137Z,-2.60
2022-12-18T08:47:15.978Z,-2.50
2022-12-18T08:49:48.530Z,-2.50
2022-12-18T08:52:21.323Z,-2.30
2022-12-18T08:54:53.798Z,-2.30
2022-12-18T08:57:26.632Z,-2.10
2022-12-18T08:59:59.331Z,-2.00
2022-12-18T09:02:32.418Z,-1.90
2022-12-18T09:05:05.415Z,-1.80
2022-12-18T09:07:38.462Z,-1.90
2022-12-18T09:10:10.953Z,-1.90
2022-12-18T09:13:06.831Z,-2.00
2022-12-18T09:15:55.149Z,-2.10
2022-12-18T09:18:28.008Z,-2.20
2022-12-18T09:21:05.539Z,-2.20
2022-12-18T09:23:39.510Z,-2.10
2022-12-18T09:26:12.185Z,-2.20
2022-12-18T09:28:45.442Z,-2.00
2022-12-18T09:31:48.220Z,-1.90
2022-12-18T09:34:18.866Z,-1.80
2022-12-18T09:36:55.128Z,-1.70
2022-12-18T09:39:30.997Z,-1.60
2022-12-18T09:42:22.389Z,-1.60
2022-12-18T09:45:04.867Z,-1.50
2022-12-18T09:47:40.223Z,-1.40
2022-12-18T09:50:33.076Z,-1.30
2022-12-18T09:53:16.835Z,-1.20
2022-12-18T09:55:59.364Z,-1.20
2022-12-18T09:58:45.413Z,-1.10
2022-12-18T10:01:24.188Z,-1.00
2022-12-18T10:03:57.491Z,-1.00
2022-12-18T10:06:36.722Z,-0.90
2022-12-18T10:09:37.345Z,-0.70
2022-12-18T10:12:36.684Z,-0.70
2022-12-18T10:15:30.522Z,-0.60
2022-12-18T10:18:22.020Z,-0.70
2022-12-18T10:21:01.163Z,-0.70
2022-12-18T10:23:44.935Z,-0.70
2022-12-18T10:26:20.476Z,-0.70
2022-12-18T10:28:56.361Z,-0.70
2022-12-18T10:31:31.241Z,-0.70
2022-12-18T10:34:04.110Z,-0.80
2022-12-18T10:36:36.804Z,-0.70
2022-12-18T10:39:24.779Z,-0.80
2022-12-18T10:42:19.753Z,-0.80
2022-12-18T10:45:06.747Z,-0.80
2022-12-18T10:47:46.069Z,-0.80
2022-12-18T10:51:09.601Z,-0.80
2022-12-18T10:53:33.999Z,-0.70
2022-12-18T10:56:07.816Z,-0.60
2022-12-18T10:58:41.514Z,-0.70
2022-12-18T11:01:17.500Z,-0.70
2022-12-18T11:04:00.450Z,-0.60
2022-12-18T11:06:35.143Z,-0.60
2022-12-18T11:09:30.095Z,-0.60
2022-12-18T11:12:13.829Z,-0.90
2022-12-18T11:14:52.880Z,-1.00
2022-12-18T11:17:35.867Z,-1.10
2022-12-18T11:20:37.546Z,-1.20
2022-12-18T11:23:14.727Z,-1.20
2022-12-18T11:25:56.897Z,-1.20
2022-12-18T11:29:09.171Z,-1.30
2022-12-18T11:31:41.752Z,-1.40
2022-12-18T11:34:30.261Z,-1.30
2022-12-18T11:37:04.836Z,-1.30
2022-12-18T11:39:48.176Z,-1.40
2022-12-18T11:42:42.585Z,-1.40
2022-12-18T11:45:15.418Z,-1.40
2022-12-18T11:47:58.995Z,-1.40
2022-12-18T11:50:37.950Z,-1.40
2022-12-18T11:53:14.007Z,-1.50
2022-12-18T11:56:00.018Z,-1.70
2022-12-18T11:59:19.974Z,-1.80
2022-12-18T12:02:18.419Z,-2.00
2022-12-18T12:05:18.850Z,-2.30
2022-12-18T12:08:11.897Z,-2.30
2022-12-18T12:11:17.317Z,-2.30
2022-12-18T12:14:14.220Z,-2.30
2022-12-18T12:17:16.969Z,-2.40
2022-12-18T12:20:04.711Z,-2.60
2022-12-18T12:23:14.458Z,-2.70
2022-12-18T12:26:08.743Z,-2.60
2022-12-18T12:28:58.520Z,-2.40
2022-12-18T12:32:16.663Z,-2.30
2022-12-18T12:35:00.833Z,-2.10
2022-12-18T12:37:35.402Z,-2.10
2022-12-18T12:40:40.867Z,-2.10
2022-12-18T12:43:15.927Z,-2.10
2022-12-18T12:46:19.931Z,-2.00
2022-12-18T12:49:05.630Z,-2.00
2022-12-18T12:51:41.850Z,-2.00
2022-12-18T12:54:22.387Z,-2.10
2022-12-18T12:57:04.359Z,-2.20
2022-12-18T13:00:00.133Z,-2.20
2022-12-18T13:03:22.177Z,-2.30
2022-12-18T13:06:15.584Z,-2.30
2022-12-18T13:09:00.361Z,-2.30
2022-12-18T13:12:02.013Z,-2.50
2022-12-18T13:14:36.313Z,-2.60
2022-12-18T13:17:31.029Z,-2.80
2022-12-18T13:20:15.654Z,-2.80
2022-12-18T13:22:51.928Z,-2.70
2022-12-18T13:25:37.193Z,-2.70
2022-12-18T13:28:15.492Z,-2.70
2022-12-18T13:30:53.750Z,-2.70
2022-12-18T13:33:29.806Z,-2.70
2022-12-18T13:36:24.368Z,-2.70
2022-12-18T13:39:19.719Z,-2.70
2022-12-18T13:42:34.787Z,-2.70
2022-12-18T13:45:41.489Z,-2.90
2022-12-18T13:48:21.704Z,-3.00
2022-12-18T13:51:18.770Z,-3.10
2022-12-18T13:54:07.142Z,-3.20
2022-12-18T13:56:45.574Z,-3.10
2022-12-18T13:59:23.883Z,-3.10
2022-12-18T14:02:00.648Z,-3.00
2022-12-18T14:04:36.736Z,-3.00
2022-12-18T14:07:13.588Z,-2.90
2022-12-18T14:09:52.286Z,-2.90
2022-12-18T14:12:49.637Z,-2.90
2022-12-18T14:15:29.652Z,-2.90
2022-12-18T14:18:21.769Z,-3.00
2022-12-18T14:20:58.420Z,-3.00
2022-12-18T14:23:37.937Z,-3.00
2022-12-18T14:26:29.010Z,-3.00
2022-12-18T14:29:21.638Z,-3.00
2022-12-18T14:32:11.781Z,-3.00
2022-12-18T14:34:49.313Z,-3.00
2022-12-18T14:37:24.728Z,-3.00
2022-12-18T14:40:10.889Z,-3.00
2022-12-18T14:42:44.124Z,-3.00
2022-12-18T14:45:42.682Z,-2.90
2022-12-18T14:48:23.018Z,-2.90
2022-12-18T14:51:02.764Z,-2.90
2022-12-18T14:53:42.638Z,-2.90
2022-12-18T14:56:32.929Z,-2.90
2022-12-18T14:59:23.805Z,-2.90
2022-12-18T15:02:17.045Z,-3.00
2022-12-18T15:05:20.740Z,-3.00
2022-12-18T15:07:55.680Z,-3.20
2022-12-18T15:10:34.318Z,-3.20
2022-12-18T15:13:09.968Z,-3.20
2022-12-18T15:15:43.432Z,-3.20
2022-12-18T15:18:49.054Z,-3.10
2022-12-18T15:21:22.121Z,-3.10
2022-12-18T15:23:55.324Z,-3.10
2022-12-18T15:26:38.073Z,-3.10
2022-12-18T15:29:24.028Z,-3.10
2022-12-18T15:32:04.945Z,-3.10
2022-12-18T15:34:37.741Z,-3.10
2022-12-18T15:37:10.388Z,-3.20
2022-12-18T15:39:43.469Z,-3.20
2022-12-18T15:42:34.808Z,-3.20
2022-12-18T15:45:12.634Z,-3.20
2022-12-18T15:47:45.384Z,-3.20
2022-12-18T15:50:18.149Z,-3.20
2022-12-18T15:52:53.404Z,-3.20
2022-12-18T15:55:44.975Z,-3.20
2022-12-18T15:58:17.478Z,-3.20
2022-12-18T16:00:50.357Z,-3.20
2022-12-18T16:03:23.110Z,-3.20
2022-12-18T16:05:56.577Z,-3.20
2022-12-18T16:08:31.282Z,-3.30
2022-12-18T16:11:04.207Z,-3.20
2022-12-18T16:13:36.783Z,-3.20
2022-12-18T16:16:10.052Z,-3.20
2022-12-18T16:18:42.646Z,-3.20
2022-12-18T16:21:15.505Z,-3.20
2022-12-18T16:23:48.019Z,-3.20
2022-12-18T16:26:20.858Z,-3.20
2022-12-18T16:28:54.202Z,-3.20
2022-12-18T16:31:27.394Z,-3.20
2022-12-18T16:34:24.980Z,-3.20
2022-12-18T16:37:05.841Z,-3.30
2022-12-18T16:39:39.897Z,-3.30
2022-12-18T16:42:17.340Z,-3.40
2022-12-18T16:44:50.917Z,-3.40
2022-12-18T16:47:24.420Z,-3.30
2022-12-18T16:49:56.926Z,-3.40
2022-12-18T16:52:30.427Z,-3.30
2022-12-18T16:55:03.592Z,-3.40
2022-12-18T16:57:36.471Z,-3.40
2022-12-18T17:00:09.629Z,-3.40
2022-12-18T17:02:42.883Z,-3.40
2022-12-18T17:05:15.634Z,-3.30
2022-12-18T17:07:48.437Z,-3.30
2022-12-18T17:10:21.020Z,-3.30
2022-12-18T17:12:53.832Z,-3.30
2022-12-18T17:15:26.384Z,-3.30
2022-12-18T17:17:59.246Z,-3.30
2022-12-18T17:20:31.826Z,-3.40
2022-12-18T17:23:04.618Z,-3.40
2022-12-18T17:25:40.459Z,-3.50
2022-12-18T17:28:13.307Z,-3.50
2022-12-18T17:30:45.858Z,-3.50
2022-12-18T17:33:19.046Z,-3.50
2022-12-18T17:35:51.788Z,-3.50
2022-12-18T17:38:24.640Z,-3.50
2022-12-18T17:41:04.672Z,-3.60
2022-12-18T17:43:45.778Z,-3.70
2022-12-18T17:46:18.716Z,-3.70
2022-12-18T17:48:52.602Z,-3.60
2022-12-18T17:51:25.952Z,-3.60
2022-12-18T17:53:59.032Z,-3.60
2022-12-18T17:56:31.911Z,-3.60
2022-12-18T17:59:06.977Z,-3.70
2022-12-18T18:01:44.487Z,-3.70
2022-12-18T18:04:18.189Z,-3.80
2022-12-18T18:06:50.880Z,-3.80
2022-12-18T18:09:23.793Z,-3.80
2022-12-18T18:12:14.914Z,-3.80
2022-12-18T18:14:48.038Z,-3.90
2022-12-18T18:17:20.770Z,-3.80
2022-12-18T18:19:53.796Z,-3.80
2022-12-18T18:22:27.089Z,-3.80
2022-12-18T18:25:02.310Z,-3.80
2022-12-18T18:27:38.513Z,-3.80
2022-12-18T18:30:12.180Z,-3.80
